createdAt,value
2022-08-17T00:00:42.746Z,23.40
2022-08-17T00:03:17.460Z,23.30
2022-08-17T00:05:49.484Z,23.20
2022-08-17T00:08:20.564Z,23.20
2022-08-17T00:10:49.997Z,23.10
2022-08-17T00:13:23.878Z,23.10
2022-08-17T00:15:55.586Z,23.00
2022-08-17T00:19:01.829Z,23.00
2022-08-17T00:21:23.644Z,22.90
2022-08-17T00:23:53.912Z,22.90
2022-08-17T00:26:44.598Z,22.80
2022-08-17T00:29:19.451Z,22.80
2022-08-17T00:31:50.695Z,22.70
2022-08-17T00:34:21.787Z,22.70
2022-08-17T00:36:51.209Z,22.70
2022-08-17T00:39:20.735Z,22.60
2022-08-17T00:41:49.856Z,22.60
2022-08-17T00:44:18.939Z,22.60
2022-08-17T00:46:48.900Z,22.60
2022-08-17T00:49:23.743Z,22.50
2022-08-17T00:52:04.992Z,22.50
2022-08-17T00:54:44.553Z,22.50
2022-08-17T00:57:20.358Z,22.50
2022-08-17T01:00:01.956Z,22.40
2022-08-17T01:02:40.466Z,22.40
2022-08-17T01:05:33.533Z,22.40
2022-08-17T01:08:11.096Z,22.40
2022-08-17T01:10:59.917Z,22.30
2022-08-17T01:13:41.027Z,22.30
2022-08-17T01:16:16.934Z,22.30
2022-08-17T01:18:49.340Z,22.30
2022-08-17T01:21:28.648Z,22.30
2022-08-17T01:23:59.392Z,22.20
2022-08-17T01:26:29.882Z,22.20
2022-08-17T01:28:59.159Z,22.20
2022-08-17T01:31:33.196Z,22.20
2022-08-17T01:34:07.518Z,22.10
2022-08-17T01:36:37.879Z,22.10
2022-08-17T01:39:17.191Z,22.10
2022-08-17T01:41:48.203Z,22.10
2022-08-17T01:44:17.947Z,22.00
2022-08-17T01:46:47.063Z,22.00
2022-08-17T01:49:16.220Z,22.00
2022-08-17T01:51:45.636Z,22.00
2022-08-17T01:54:18.279Z,22.00
2022-08-17T01:56:52.269Z,21.90
2022-08-17T01:59:21.987Z,21.90
2022-08-17T02:01:51.393Z,21.90
2022-08-17T02:04:20.457Z,21.90
2022-08-17T02:06:53.679Z,21.90
2022-08-17T02:09:26.264Z,21.90
2022-08-17T02:12:05.802Z,21.90
2022-08-17T02:14:52.967Z,21.90
2022-08-17T02:17:22.018Z,21.90
2022-08-17T02:19:51.155Z,21.90
2022-08-17T02:22:20.853Z,21.80
2022-08-17T02:25:00.983Z,21.80
2022-08-17T02:27:31.701Z,21.80
2022-08-17T02:30:01.691Z,21.80
2022-08-17T02:32:34.316Z,21.80
2022-08-17T02:35:04.774Z,21.70
2022-08-17T02:37:34.611Z,21.70
2022-08-17T02:40:07.218Z,21.70
2022-08-17T02:42:39.874Z,21.70
2022-08-17T02:45:16.492Z,21.70
2022-08-17T02:47:47.072Z,21.70
2022-08-17T02:50:21.696Z,21.60
2022-08-17T02:52:55.246Z,21.60
2022-08-17T02:55:34.543Z,21.60
2022-08-17T02:58:03.974Z,21.50
2022-08-17T03:00:34.994Z,21.50
2022-08-17T03:03:05.837Z,21.40
2022-08-17T03:05:37.160Z,21.40
2022-08-17T03:08:12.966Z,21.40
2022-08-17T03:10:45.990Z,21.30
2022-08-17T03:13:15.927Z,21.30
2022-08-17T03:15:47.114Z,21.20
2022-08-17T03:18:24.326Z,21.20
2022-08-17T03:20:56.915Z,21.20
2022-08-17T03:23:27.501Z,21.20
2022-08-17T03:26:00.734Z,21.20
2022-08-17T03:28:29.971Z,21.10
2022-08-17T03:30:58.859Z,21.10
2022-08-17T03:33:27.957Z,21.10
2022-08-17T03:35:57.404Z,21.10
2022-08-17T03:38:26.894Z,21.10
2022-08-17T03:40:59.767Z,21.10
2022-08-17T03:43:33.093Z,21.10
2022-08-17T03:46:28.310Z,21.10
2022-08-17T03:49:23.133Z,21.10
2022-08-17T03:52:10.318Z,21.10
2022-08-17T03:54:57.514Z,21.10
2022-08-17T03:57:26.768Z,21.10
2022-08-17T03:59:57.702Z,21.00
2022-08-17T04:02:32.193Z,21.00
2022-08-17T04:05:02.510Z,21.00
2022-08-17T04:07:32.782Z,20.90
2022-08-17T04:10:02.045Z,20.90
2022-08-17T04:12:44.984Z,20.90
2022-08-17T04:15:15.905Z,20.90
2022-08-17T04:17:45.791Z,20.90
2022-08-17T04:20:16.660Z,20.80
2022-08-17T04:22:57.717Z,20.80
2022-08-17T04:25:28.190Z,20.80
2022-08-17T04:27:57.921Z,20.70
2022-08-17T04:30:30.306Z,20.70
2022-08-17T04:33:05.806Z,20.70
2022-08-17T04:35:38.738Z,20.70
2022-08-17T04:38:08.759Z,20.70
2022-08-17T04:40:55.826Z,20.70
2022-08-17T04:43:26.452Z,20.60
2022-08-17T04:45:59.392Z,20.70
2022-08-17T04:48:36.129Z,20.70
2022-08-17T04:51:11.156Z,20.70
2022-08-17T04:53:42.067Z,20.80
2022-08-17T04:56:16.779Z,20.80
2022-08-17T04:58:47.794Z,20.80
2022-08-17T05:01:23.960Z,20.80
2022-08-17T05:03:54.182Z,20.80
2022-08-17T05:06:23.972Z,20.90
2022-08-17T05:08:53.738Z,20.90
2022-08-17T05:11:23.394Z,20.90
2022-08-17T05:13:52.423Z,20.90
2022-08-17T05:16:24.196Z,20.90
2022-08-17T05:18:54.066Z,21.00
2022-08-17T05:21:24.431Z,21.00
2022-08-17T05:23:55.007Z,21.00
2022-08-17T05:26:27.518Z,21.00
2022-08-17T05:29:03.018Z,21.10
2022-08-17T05:31:33.548Z,21.10
2022-08-17T05:34:02.380Z,21.20
2022-08-17T05:36:42.603Z,21.20
2022-08-17T05:39:16.439Z,21.30
2022-08-17T05:41:49.447Z,21.30
2022-08-17T05:44:18.524Z,21.40
2022-08-17T05:46:51.669Z,21.40
2022-08-17T05:49:25.737Z,21.50
2022-08-17T05:52:19.851Z,21.60
2022-08-17T05:55:03.047Z,21.60
2022-08-17T05:57:42.393Z,21.70
2022-08-17T06:00:26.461Z,21.80
2022-08-17T06:03:16.293Z,21.90
2022-08-17T06:06:00.532Z,22.00
2022-08-17T06:08:36.280Z,22.10
2022-08-17T06:11:19.772Z,22.10
2022-08-17T06:14:19.631Z,22.20
2022-08-17T06:16:52.611Z,22.30
2022-08-17T06:19:28.693Z,22.30
2022-08-17T06:21:59.150Z,22.40
2022-08-17T06:24:34.864Z,22.50
2022-08-17T06:27:13.425Z,22.50
2022-08-17T06:29:50.708Z,22.60
2022-08-17T06:32:20.054Z,22.70
2022-08-17T06:34:50.783Z,22.80
2022-08-17T06:37:39.043Z,22.80
2022-08-17T06:40:45.467Z,22.90
2022-08-17T06:43:28.039Z,23.00
2022-08-17T06:46:02.157Z,23.00
2022-08-17T06:48:39.527Z,23.10
2022-08-17T06:51:18.576Z,23.10
2022-08-17T06:53:53.696Z,23.20
2022-08-17T06:56:53.071Z,23.30
2022-08-17T06:59:55.257Z,23.40
2022-08-17T07:02:51.973Z,23.50
2022-08-17T07:05:25.307Z,23.60
2022-08-17T07:08:04.110Z,23.70
2022-08-17T07:10:39.380Z,23.90
2022-08-17T07:13:31.065Z,24.00
2022-08-17T07:16:08.786Z,24.10
2022-08-17T07:18:38.282Z,24.20
2022-08-17T07:21:17.940Z,24.30
2022-08-17T07:24:04.334Z,24.40
2022-08-17T07:26:33.378Z,24.50
2022-08-17T07:29:03.403Z,24.60
2022-08-17T07:31:33.739Z,24.70
2022-08-17T07:34:07.977Z,24.80
2022-08-17T07:36:37.056Z,24.90
2022-08-17T07:39:07.559Z,25.00
2022-08-17T07:41:53.098Z,25.10
2022-08-17T07:44:27.222Z,25.30
2022-08-17T07:47:14.503Z,25.40
2022-08-17T07:49:45.971Z,25.60
2022-08-17T07:52:48.379Z,25.70
2022-08-17T07:55:32.662Z,25.80
2022-08-17T07:58:03.457Z,26.00
2022-08-17T08:00:33.654Z,26.10
2022-08-17T08:03:14.766Z,26.20
2022-08-17T08:05:57.689Z,26.40
2022-08-17T08:08:31.047Z,26.50
2022-08-17T08:11:08.911Z,26.70
2022-08-17T08:13:42.882Z,26.80
2022-08-17T08:16:24.242Z,27.00
2022-08-17T08:18:57.539Z,27.10
2022-08-17T08:21:38.034Z,27.30
2022-08-17T08:24:30.816Z,27.40
2022-08-17T08:27:11.731Z,27.50
2022-08-17T08:29:50.208Z,27.70
2022-08-17T08:32:33.388Z,27.80
2022-08-17T08:35:07.728Z,27.80
2022-08-17T08:37:48.026Z,27.90
2022-08-17T08:40:43.675Z,28.10
2022-08-17T08:43:23.019Z,28.20
2022-08-17T08:45:59.614Z,28.30
2022-08-17T08:49:06.468Z,28.50
2022-08-17T08:51:48.095Z,28.60
2022-08-17T08:54:34.440Z,28.70
2022-08-17T08:57:26.786Z,28.80
2022-08-17T09:00:14.416Z,28.90
2022-08-17T09:03:09.652Z,29.00
2022-08-17T09:06:00.234Z,29.10
2022-08-17T09:08:35.462Z,29.20
2022-08-17T09:11:08.427Z,29.30
2022-08-17T09:13:45.896Z,29.40
2022-08-17T09:16:30.684Z,29.40
2022-08-17T09:19:04.986Z,29.50
2022-08-17T09:21:47.884Z,29.60
2022-08-17T09:24:24.171Z,29.70
2022-08-17T09:26:59.403Z,29.70
2022-08-17T09:29:35.037Z,29.80
2022-08-17T09:32:16.054Z,29.80
2022-08-17T09:34:50.709Z,29.90
2022-08-17T09:37:28.429Z,29.90
2022-08-17T09:40:09.486Z,30.00
2022-08-17T09:42:46.444Z,30.00
2022-08-17T09:45:27.555Z,30.10
2022-08-17T09:48:05.249Z,30.10
2022-08-17T09:51:03.249Z,30.20
2022-08-17T09:53:32.065Z,30.20
2022-08-17T09:56:15.131Z,30.30
2022-08-17T09:59:00.433Z,30.40
2022-08-17T10:01:39.939Z,30.50
2022-08-17T10:04:33.179Z,30.60
2022-08-17T10:07:08.243Z,30.60
2022-08-17T10:09:48.407Z,30.70
2022-08-17T10:12:30.203Z,30.80
2022-08-17T10:15:27.657Z,30.80
2022-08-17T10:18:33.114Z,30.90
2022-08-17T10:21:26.150Z,30.90
2022-08-17T10:24:21.956Z,31.00
2022-08-17T10:26:56.372Z,31.00
2022-08-17T10:29:30.475Z,31.00
2022-08-17T10:32:32.289Z,31.10
2022-08-17T10:35:18.964Z,31.10
2022-08-17T10:38:09.596Z,31.20
2022-08-17T10:40:47.728Z,31.20
2022-08-17T10:43:37.183Z,31.30
2022-08-17T10:46:31.691Z,31.30
2022-08-17T10:49:33.969Z,31.40
2022-08-17T10:52:07.940Z,31.50
2022-08-17T10:54:49.170Z,31.50
2022-08-17T10:57:42.236Z,31.50
2022-08-17T11:00:29.619Z,31.50
2022-08-17T11:03:00.111Z,31.60
2022-08-17T11:05:58.809Z,31.60
2022-08-17T11:09:03.817Z,31.60
2022-08-17T11:11:47.534Z,31.70
2022-08-17T11:14:47.229Z,31.80
2022-08-17T11:17:37.599Z,31.80
2022-08-17T11:20:30.222Z,31.80
2022-08-17T11:23:30.462Z,31.80
2022-08-17T11:26:03.975Z,31.80
2022-08-17T11:28:46.736Z,31.80
2022-08-17T11:31:38.269Z,31.90
2022-08-17T11:34:18.588Z,31.90
2022-08-17T11:37:05.013Z,31.90
2022-08-17T11:40:01.635Z,31.90
2022-08-17T11:42:40.811Z,31.90
2022-08-17T11:45:33.128Z,31.90
2022-08-17T11:48:28.416Z,31.90
2022-08-17T11:51:25.831Z,31.90
2022-08-17T11:54:31.776Z,32.00
2022-08-17T11:57:00.448Z,32.10
2022-08-17T11:59:59.947Z,32.10
2022-08-17T12:03:14.235Z,32.20
2022-08-17T12:05:45.405Z,32.30
2022-08-17T12:08:20.033Z,32.30
2022-08-17T12:10:56.988Z,32.30
2022-08-17T12:13:38.522Z,32.30
2022-08-17T12:16:09.831Z,32.30
2022-08-17T12:18:41.958Z,32.30
2022-08-17T12:21:28.752Z,32.30
2022-08-17T12:24:06.485Z,32.30
2022-08-17T12:26:37.320Z,32.30
2022-08-17T12:29:38.915Z,32.40
2022-08-17T12:32:03.399Z,32.50
2022-08-17T12:34:37.557Z,32.60
2022-08-17T12:37:14.564Z,32.70
2022-08-17T12:39:52.428Z,32.70
2022-08-17T12:42:30.250Z,32.80
2022-08-17T12:44:59.790Z,32.90
2022-08-17T12:47:30.117Z,33.00
2022-08-17T12:50:29.134Z,33.10
2022-08-17T12:53:02.445Z,33.20
2022-08-17T12:55:38.840Z,33.40
2022-08-17T12:58:14.479Z,33.50
2022-08-17T13:00:49.510Z,33.60
2022-08-17T13:03:22.862Z,33.80
2022-08-17T13:06:00.572Z,33.90
2022-08-17T13:08:33.138Z,34.00
2022-08-17T13:11:05.319Z,34.10
2022-08-17T13:13:37.023Z,34.10
2022-08-17T13:16:09.526Z,34.20
2022-08-17T13:18:42.770Z,34.30
2022-08-17T13:21:27.019Z,34.30
2022-08-17T13:24:00.448Z,34.40
2022-08-17T13:26:33.952Z,34.50
2022-08-17T13:29:06.540Z,34.40
2022-08-17T13:31:51.912Z,34.40
2022-08-17T13:34:49.587Z,34.30
2022-08-17T13:37:34.086Z,34.30
2022-08-17T13:40:32.258Z,34.20
2022-08-17T13:43:03.309Z,34.10
2022-08-17T13:45:50.894Z,33.90
2022-08-17T13:48:28.955Z,33.80
2022-08-17T13:51:27.478Z,33.70
2022-08-17T13:54:01.059Z,33.60
2022-08-17T13:56:46.597Z,33.60
2022-08-17T13:59:52.552Z,33.50
2022-08-17T14:02:20.228Z,33.40
2022-08-17T14:04:50.272Z,33.40
2022-08-17T14:07:30.768Z,33.40
2022-08-17T14:10:01.878Z,33.40
2022-08-17T14:12:34.084Z,33.40
2022-08-17T14:15:03.549Z,33.30
2022-08-17T14:17:38.447Z,33.30
2022-08-17T14:20:10.926Z,33.40
2022-08-17T14:22:44.126Z,33.30
2022-08-17T14:25:16.364Z,33.30
2022-08-17T14:27:52.996Z,33.40
2022-08-17T14:30:25.588Z,33.30
2022-08-17T14:32:57.960Z,33.30
2022-08-17T14:35:29.303Z,33.30
2022-08-17T14:37:59.126Z,33.20
2022-08-17T14:40:29.331Z,33.20
2022-08-17T14:43:01.276Z,33.10
2022-08-17T14:45:33.277Z,33.00
2022-08-17T14:48:05.813Z,33.00
2022-08-17T14:50:36.130Z,33.00
2022-08-17T14:53:06.659Z,32.90
2022-08-17T14:55:39.681Z,32.90
2022-08-17T14:58:10.418Z,32.80
2022-08-17T15:00:41.254Z,32.80
2022-08-17T15:03:11.375Z,32.80
2022-08-17T15:05:40.642Z,32.80
2022-08-17T15:08:09.700Z,32.80
2022-08-17T15:10:39.128Z,32.80
2022-08-17T15:13:18.001Z,32.80
2022-08-17T15:15:47.794Z,32.80
2022-08-17T15:18:17.423Z,32.80
2022-08-17T15:20:48.655Z,32.80
2022-08-17T15:23:19.664Z,32.70
2022-08-17T15:25:49.827Z,32.70
2022-08-17T15:28:22.697Z,32.60
2022-08-17T15:30:52.075Z,32.60
2022-08-17T15:33:23.790Z,32.60
2022-08-17T15:35:53.490Z,32.50
2022-08-17T15:38:23.414Z,32.50
2022-08-17T15:40:53.774Z,32.50
2022-08-17T15:43:27.969Z,32.40
2022-08-17T15:46:00.944Z,32.40
2022-08-17T15:48:41.906Z,32.30
2022-08-17T15:51:14.333Z,32.30
2022-08-17T15:53:45.155Z,32.30
2022-08-17T15:56:15.451Z,32.30
2022-08-17T15:58:47.627Z,32.30
2022-08-17T16:02:21.538Z,32.30
2022-08-17T16:04:26.881Z,32.30
2022-08-17T16:06:59.904Z,32.20
2022-08-17T16:09:29.596Z,32.20
2022-08-17T16:12:08.740Z,32.20
2022-08-17T16:14:38.923Z,32.20
2022-08-17T16:17:39.143Z,32.20
2022-08-17T16:19:59.091Z,32.20
2022-08-17T16:22:34.568Z,32.10
2022-08-17T16:25:05.549Z,32.10
2022-08-17T16:27:35.654Z,32.10
2022-08-17T16:30:07.570Z,32.00
2022-08-17T16:32:37.163Z,32.00
2022-08-17T16:35:08.768Z,31.90
2022-08-17T16:37:37.781Z,31.90
2022-08-17T16:40:08.022Z,31.90
2022-08-17T16:42:39.549Z,31.90
2022-08-17T16:45:13.979Z,31.90
2022-08-17T16:47:43.597Z,31.80
2022-08-17T16:50:15.820Z,31.80
2022-08-17T16:52:45.715Z,31.70
2022-08-17T16:55:15.496Z,31.70
2022-08-17T16:57:50.019Z,31.70
2022-08-17T17:00:21.478Z,31.70
2022-08-17T17:02:50.773Z,31.60
2022-08-17T17:05:41.790Z,31.60
2022-08-17T17:08:14.324Z,31.60
2022-08-17T17:10:46.549Z,31.60
2022-08-17T17:13:20.290Z,31.50
2022-08-17T17:15:58.724Z,31.50
2022-08-17T17:18:39.203Z,31.50
2022-08-17T17:21:14.326Z,31.50
2022-08-17T17:23:54.515Z,31.40
2022-08-17T17:26:39.581Z,31.40
2022-08-17T17:29:27.731Z,31.40
2022-08-17T17:32:09.466Z,31.40
2022-08-17T17:34:41.638Z,31.30
2022-08-17T17:37:15.762Z,31.30
2022-08-17T17:39:49.783Z,31.20
2022-08-17T17:42:23.099Z,31.20
2022-08-17T17:45:00.274Z,31.10
2022-08-17T17:47:34.680Z,31.10
2022-08-17T17:50:06.323Z,31.00
2022-08-17T17:52:45.389Z,31.00
2022-08-17T17:55:32.802Z,31.00
2022-08-17T17:58:16.950Z,30.90
2022-08-17T18:00:54.643Z,30.90
2022-08-17T18:03:41.782Z,30.90
2022-08-17T18:06:27.161Z,30.80
2022-08-17T18:09:18.073Z,30.80
2022-08-17T18:12:11.840Z,30.70
2022-08-17T18:15:00.168Z,30.60
2022-08-17T18:17:30.978Z,30.60
2022-08-17T18:20:01.747Z,30.60
2022-08-17T18:22:31.891Z,30.50
2022-08-17T18:25:01.603Z,30.50
2022-08-17T18:27:35.418Z,30.40
2022-08-17T18:30:25.963Z,30.40
2022-08-17T18:32:54.764Z,30.30
2022-08-17T18:35:30.225Z,30.20
2022-08-17T18:38:20.912Z,30.20
2022-08-17T18:41:03.182Z,30.10
2022-08-17T18:43:44.147Z,30.10
2022-08-17T18:46:29.716Z,30.00
2022-08-17T18:49:02.447Z,29.90
2022-08-17T18:51:41.536Z,29.90
2022-08-17T18:54:19.775Z,29.80
2022-08-17T18:56:55.257Z,29.70
2022-08-17T18:59:30.052Z,29.70
2022-08-17T19:02:23.170Z,29.60
2022-08-17T19:05:06.808Z,29.50
2022-08-17T19:07:39.827Z,29.50
2022-08-17T19:10:24.014Z,29.40
2022-08-17T19:13:00.221Z,29.40
2022-08-17T19:15:35.433Z,29.40
2022-08-17T19:18:15.130Z,29.30
2022-08-17T19:20:50.735Z,29.20
2022-08-17T19:23:26.344Z,29.20
2022-08-17T19:25:58.464Z,29.20
2022-08-17T19:28:32.908Z,29.10
2022-08-17T19:31:07.476Z,29.10
2022-08-17T19:33:37.462Z,29.00
2022-08-17T19:36:10.888Z,29.00
2022-08-17T19:38:50.661Z,28.90
2022-08-17T19:41:25.049Z,28.90
2022-08-17T19:44:13.011Z,28.90
2022-08-17T19:46:55.982Z,28.80
2022-08-17T19:49:41.649Z,28.70
2022-08-17T19:52:28.235Z,28.70
2022-08-17T19:55:03.348Z,28.60
2022-08-17T19:57:48.567Z,28.60
2022-08-17T20:00:19.090Z,28.60
2022-08-17T20:02:55.377Z,28.50
2022-08-17T20:05:30.076Z,28.40
2022-08-17T20:08:03.459Z,28.40
2022-08-17T20:10:40.506Z,28.40
2022-08-17T20:13:12.063Z,28.30
2022-08-17T20:16:01.607Z,28.30
2022-08-17T20:19:17.846Z,28.20
2022-08-17T20:22:13.711Z,28.20
2022-08-17T20:24:48.544Z,28.10
2022-08-17T20:27:22.698Z,28.10
2022-08-17T20:30:12.007Z,28.00
2022-08-17T20:32:53.008Z,28.00
2022-08-17T20:35:25.827Z,27.90
2022-08-17T20:37:58.973Z,27.90
2022-08-17T20:40:35.138Z,27.90
2022-08-17T20:43:51.170Z,27.80
2022-08-17T20:46:34.365Z,27.80
2022-08-17T20:49:24.809Z,27.70
2022-08-17T20:52:02.524Z,27.70
2022-08-17T20:54:46.025Z,27.60
2022-08-17T20:57:45.571Z,27.60
2022-08-17T21:00:44.954Z,27.50
2022-08-17T21:03:52.169Z,27.40
2022-08-17T21:06:24.924Z,27.40
2022-08-17T21:08:59.848Z,27.30
2022-08-17T21:11:56.793Z,27.20
2022-08-17T21:14:54.137Z,27.20
2022-08-17T21:17:39.287Z,27.10
2022-08-17T21:20:23.375Z,27.10
2022-08-17T21:23:05.160Z,27.00
2022-08-17T21:25:51.186Z,27.00
2022-08-17T21:28:30.046Z,27.00
2022-08-17T21:31:09.101Z,26.90
2022-08-17T21:33:40.772Z,26.90
2022-08-17T21:36:27.357Z,26.90
2022-08-17T21:39:02.281Z,26.90
2022-08-17T21:41:34.433Z,26.80
2022-08-17T21:44:07.066Z,26.80
2022-08-17T21:46:42.963Z,26.70
2022-08-17T21:49:19.360Z,26.70
2022-08-17T21:51:50.851Z,26.70
2022-08-17T21:54:31.717Z,26.60
2022-08-17T21:57:03.916Z,26.60
2022-08-17T21:59:35.624Z,26.60
2022-08-17T22:02:07.504Z,26.50
2022-08-17T22:04:40.049Z,26.50
2022-08-17T22:07:11.524Z,26.50
2022-08-17T22:09:43.984Z,26.40
2022-08-17T22:12:17.566Z,26.40
2022-08-17T22:14:57.171Z,26.30
2022-08-17T22:17:28.459Z,26.30
2022-08-17T22:20:05.939Z,26.30
2022-08-17T22:22:59.764Z,26.20
2022-08-17T22:25:31.016Z,26.20
2022-08-17T22:28:01.976Z,26.10
2022-08-17T22:30:36.694Z,26.10
2022-08-17T22:33:41.421Z,26.00
2022-08-17T22:36:15.411Z,26.00
2022-08-17T22:38:45.076Z,26.00
2022-08-17T22:41:37.699Z,25.90
2022-08-17T22:44:17.652Z,25.90
2022-08-17T22:46:55.245Z,25.90
2022-08-17T22:49:29.203Z,25.80
2022-08-17T22:52:32.147Z,25.80
2022-08-17T22:55:30.536Z,25.70
2022-08-17T22:58:17.187Z,25.70
2022-08-17T23:00:48.079Z,25.60
2022-08-17T23:03:19.600Z,25.60
2022-08-17T23:06:06.268Z,25.60
2022-08-17T23:08:43.122Z,25.60
2022-08-17T23:11:12.218Z,25.50
2022-08-17T23:13:41.443Z,25.50
2022-08-17T23:16:10.627Z,25.50
2022-08-17T23:18:39.621Z,25.50
2022-08-17T23:21:08.815Z,25.50
2022-08-17T23:23:43.699Z,25.40
2022-08-17T23:26:12.627Z,25.40
2022-08-17T23:28:43.608Z,25.40
2022-08-17T23:31:17.280Z,25.40
2022-08-17T23:33:47.555Z,25.40
2022-08-17T23:36:18.081Z,25.30
2022-08-17T23:38:48.631Z,25.30
2022-08-17T23:41:21.218Z,25.30
2022-08-17T23:43:52.947Z,25.30
2022-08-17T23:46:24.954Z,25.30
2022-08-17T23:48:54.314Z,25.30
2022-08-17T23:51:26.349Z,25.30
2022-08-17T23:54:05.808Z,25.20
2022-08-17T23:56:41.887Z,25.20
2022-08-17T23:59:12.349Z,25.20
